Time;durP1;ratioP1;P1;durP2;ratioP2;P2;SDS_P1;SDS_P2;PMS_P1;PMS_P2;Temp;Humidity;BMP_temperature;BMP_pressure;BME280_temperature;BME280_humidity;BME280_pressure;Samples;Min_cycle;Max_cycle;Signal;HPM_P1;HPM_P2
2023/09/19 00:02:06;;;;;;;;;;;;;;;;;;6316413;22;20255;-87
2023/09/19 00:04:32;;;;;;;;;;;;;;;;;;6285609;22;19919;-88
2023/09/19 00:06:58;;;;;;;;;;;;;;;;;;6289783;22;19918;-87
2023/09/19 00:09:27;;;;;;;;;;;;;;;;;;6314503;22;19923;-88
2023/09/19 00:11:53;;;;;;;;;;;;;;;;;;6290560;22;19922;-87
2023/09/19 00:14:24;;;;;;;;;;;;;;;;;;6315796;22;19964;-87
2023/09/19 00:16:51;;;;;;;;;;;;;;;;;;6292079;22;19919;-87
2023/09/19 00:19:17;;;;;;;;;;;;;;;;;;6285914;22;20035;-87
2023/09/19 00:21:45;;;;;;;;;;;;;;;;;;6313263;22;19938;-87
2023/09/19 00:24:12;;;;;;;;;;;;;;;;;;6290065;22;19922;-87
2023/09/19 00:26:39;;;;;;;;;;;;;;;;;;6298204;22;19918;-87
2023/09/19 00:29:08;;;;;;;;;;;;;;;;;;6300788;22;19918;-87
2023/09/19 00:31:34;;;;;;;;;;;;;;;;;;6285176;22;19925;-88
2023/09/19 00:34:09;;;;;;;;;;;;;;;;;;6316612;22;19934;-87
2023/09/19 00:36:36;;;;;;;;;;;;;;;;;;6290458;22;19918;-87
2023/09/19 00:39:02;;;;;;;;;;;;;;;;;;6291294;22;19925;-87
2023/09/19 00:41:30;;;;;;;;;;;;;;;;;;6288487;22;19923;-89
2023/09/19 00:43:56;;;;;;;;;;;;;;;;;;6287322;22;19922;-87
2023/09/19 00:46:22;;;;;;;;;;;;;;;;;;6311570;22;19946;-87
2023/09/19 00:48:49;;;;;;;;;;;;;;;;;;6315977;22;19925;-87
2023/09/19 00:51:19;;;;;;;;;;;;;;;;;;6292704;22;20318;-87
2023/09/19 00:53:46;;;;;;;;;;;;;;;;;;6317287;22;19919;-87
2023/09/19 00:56:12;;;;;;;;;;;;;;;;;;6316566;22;20290;-87
2023/09/19 00:58:40;;;;;;;;;;;;;;;;;;6313345;22;20179;-87
2023/09/19 01:01:06;;;;;;;;;;;;;;;;;;6290821;22;19925;-87
2023/09/19 01:03:33;;;;;;;;;;;;;;;;;;6308765;22;20291;-87
2023/09/19 01:06:01;;;;;;;;;;;;;;;;;;6288256;22;19918;-87
2023/09/19 01:08:29;;;;;;;;;;;;;;;;;;6287273;22;19930;-87
2023/09/19 01:10:55;;;;;;;;;;;;;;;;;;6317541;22;19979;-87
2023/09/19 01:13:21;;;;;;;;;;;;;;;;;;6287905;22;20318;-87
2023/09/19 01:15:47;;;;;;;;;;;;;;;;;;6317392;22;19918;-87
2023/09/19 01:18:13;;;;;;;;;;;;;;;;;;6289747;22;19932;-87
2023/09/19 01:20:40;;;;;;;;;;;;;;;;;;6286438;22;19962;-87
2023/09/19 01:23:08;;;;;;;;;;;;;;;;;;6291483;22;19926;-87
2023/09/19 01:25:35;;;;;;;;;;;;;;;;;;6288613;22;19987;-88
2023/09/19 01:28:01;;;;;;;;;;;;;;;;;;6289686;22;19925;-87
2023/09/19 01:30:27;;;;;;;;;;;;;;;;;;6312802;22;19918;-87
2023/09/19 01:32:53;;;;;;;;;;;;;;;;;;6288212;22;19926;-87
2023/09/19 01:35:19;;;;;;;;;;;;;;;;;;6316758;22;19918;-88
2023/09/19 01:37:45;;;;;;;;;;;;;;;;;;6314933;22;19925;-87
2023/09/19 01:40:11;;;;;;;;;;;;;;;;;;6318576;22;19926;-87
2023/09/19 01:42:37;;;;;;;;;;;;;;;;;;6291316;22;20728;-87
2023/09/19 01:45:04;;;;;;;;;;;;;;;;;;6293620;22;19965;-86
2023/09/19 01:47:30;;;;;;;;;;;;;;;;;;6288447;22;19989;-87
2023/09/19 01:49:57;;;;;;;;;;;;;;;;;;6316497;22;19994;-87
2023/09/19 01:52:23;;;;;;;;;;;;;;;;;;6315191;22;20021;-87
2023/09/19 01:54:49;;;;;;;;;;;;;;;;;;6288899;22;20018;-87
2023/09/19 01:57:15;;;;;;;;;;;;;;;;;;6316027;22;20017;-87
2023/09/19 01:59:41;;;;;;;;;;;;;;;;;;6314088;22;19926;-87
2023/09/19 02:02:08;;;;;;;;;;;;;;;;;;6312846;22;19918;-87
2023/09/19 02:04:37;;;;;;;;;;;;;;;;;;6311301;22;19919;-87
2023/09/19 02:07:05;;;;;;;;;;;;;;;;;;6314006;22;19989;-87
2023/09/19 02:09:31;;;;;;;;;;;;;;;;;;6286768;22;19930;-87
2023/09/19 02:11:59;;;;;;;;;;;;;;;;;;6290292;22;19918;-87
2023/09/19 02:14:24;;;;;;;;;;;;;;;;;;6286637;22;20009;-87
2023/09/19 02:16:50;;;;;;;;;;;;;;;;;;6315046;22;20283;-87
2023/09/19 02:19:17;;;;;;;;;;;;;;;;;;6310357;22;20250;-87
2023/09/19 02:21:43;;;;;;;;;;;;;;;;;;6312392;22;19922;-87
2023/09/19 02:24:10;;;;;;;;;;;;;;;;;;6316888;22;19919;-87
2023/09/19 02:26:36;;;;;;;;;;;;;;;;;;6312812;22;19983;-87
2023/09/19 02:29:04;;;;;;;;;;;;;;;;;;6317590;22;19999;-87
2023/09/19 02:31:30;;;;;;;;;;;;;;;;;;6313419;22;19919;-87
2023/09/19 02:33:56;;;;;;;;;;;;;;;;;;6313750;22;19948;-87
2023/09/19 02:36:23;;;;;;;;;;;;;;;;;;6313791;22;19922;-88
2023/09/19 02:38:49;;;;;;;;;;;;;;;;;;6316460;22;19926;-88
2023/09/19 02:41:15;;;;;;;;;;;;;;;;;;6316602;22;20254;-87
2023/09/19 02:43:42;;;;;;;;;;;;;;;;;;6312124;22;19922;-87
2023/09/19 02:46:09;;;;;;;;;;;;;;;;;;6289724;22;19926;-88
2023/09/19 02:48:35;;;;;;;;;;;;;;;;;;6285359;22;19968;-87
2023/09/19 02:51:03;;;;;;;;;;;;;;;;;;6315123;22;19933;-87
2023/09/19 02:53:31;;;;;;;;;;;;;;;;;;6312610;22;20342;-87
2023/09/19 02:55:57;;;;;;;;;;;;;;;;;;6314483;22;20335;-87
2023/09/19 02:58:25;;;;;;;;;;;;;;;;;;6313563;22;19946;-87
2023/09/19 03:00:51;;;;;;;;;;;;;;;;;;6290751;22;20287;-88
2023/09/19 03:03:17;;;;;;;;;;;;;;;;;;6288639;22;19930;-88
2023/09/19 03:05:46;;;;;;;;;;;;;;;;;;6311137;22;19922;-87
2023/09/19 03:08:14;;;;;;;;;;;;;;;;;;6315259;22;19923;-87
2023/09/19 03:10:40;;;;;;;;;;;;;;;;;;6313646;22;20547;-87
2023/09/19 03:13:09;;;;;;;;;;;;;;;;;;6316232;22;20338;-87
2023/09/19 03:15:38;;;;;;;;;;;;;;;;;;6313923;22;19936;-87
2023/09/19 03:18:04;;;;;;;;;;;;;;;;;;6314995;22;20521;-87
2023/09/19 03:20:30;;;;;;;;;;;;;;;;;;6304611;22;20021;-87
2023/09/19 03:22:57;;;;;;;;;;;;;;;;;;6308588;22;19929;-87
2023/09/19 03:25:25;;;;;;;;;;;;;;;;;;6283729;22;19923;-87
2023/09/19 03:27:51;;;;;;;;;;;;;;;;;;6287788;22;19918;-88
2023/09/19 03:30:17;;;;;;;;;;;;;;;;;;6312196;22;20296;-87
2023/09/19 03:32:43;;;;;;;;;;;;;;;;;;6308726;22;19922;-88
2023/09/19 03:35:09;;;;;;;;;;;;;;;;;;6309500;22;19948;-87
2023/09/19 03:37:35;;;;;;;;;;;;;;;;;;6283108;22;19967;-88
2023/09/19 03:40:05;;;;;;;;;;;;;;;;;;6307947;22;19919;-87
2023/09/19 03:42:30;;;;;;;;;;;;;;;;;;6310958;22;19930;-88
2023/09/19 03:44:57;;;;;;;;;;;;;;;;;;6315269;22;19920;-87
2023/09/19 03:47:23;;;;;;;;;;;;;;;;;;6313749;22;20004;-87
2023/09/19 03:49:49;;;;;;;;;;;;;;;;;;6290416;22;19919;-88
2023/09/19 03:52:18;;;;;;;;;;;;;;;;;;6287493;22;19918;-87
2023/09/19 03:54:44;;;;;;;;;;;;;;;;;;6310645;22;19927;-88
2023/09/19 03:57:10;;;;;;;;;;;;;;;;;;6288049;22;19918;-87
2023/09/19 03:59:36;;;;;;;;;;;;;;;;;;6309613;22;20646;-87
2023/09/19 04:02:02;;;;;;;;;;;;;;;;;;6288064;22;19919;-87
2023/09/19 04:04:29;;;;;;;;;;;;;;;;;;6286700;22;19944;-88
2023/09/19 04:06:55;;;;;;;;;;;;;;;;;;6314838;22;19918;-87
2023/09/19 04:09:21;;;;;;;;;;;;;;;;;;6315622;22;20335;-87
2023/09/19 04:11:49;;;;;;;;;;;;;;;;;;6287549;22;19923;-87
2023/09/19 04:14:15;;;;;;;;;;;;;;;;;;6260094;22;19926;-87
2023/09/19 04:16:44;;;;;;;;;;;;;;;;;;6283756;22;20334;-87
2023/09/19 04:19:14;;;;;;;;;;;;;;;;;;6284945;22;19918;-88
2023/09/19 04:21:40;;;;;;;;;;;;;;;;;;6284276;22;20331;-87
2023/09/19 04:24:07;;;;;;;;;;;;;;;;;;6260436;22;19922;-88
2023/09/19 04:26:33;;;;;;;;;;;;;;;;;;6253163;22;19929;-88
2023/09/19 04:28:59;;;;;;;;;;;;;;;;;;6260750;22;19950;-87
2023/09/19 04:31:25;;;;;;;;;;;;;;;;;;6312330;22;19966;-87
2023/09/19 04:33:51;;;;;;;;;;;;;;;;;;6261623;22;19938;-88
2023/09/19 04:36:17;;;;;;;;;;;;;;;;;;6258333;22;19918;-88
2023/09/19 04:38:43;;;;;;;;;;;;;;;;;;6255941;22;19990;-87
2023/09/19 04:41:09;;;;;;;;;;;;;;;;;;6286602;22;20171;-88
2023/09/19 04:43:35;;;;;;;;;;;;;;;;;;6260679;22;20025;-87
2023/09/19 04:46:01;;;;;;;;;;;;;;;;;;6260192;22;20401;-87
2023/09/19 04:48:29;;;;;;;;;;;;;;;;;;6284832;22;19950;-87
2023/09/19 04:50:55;;;;;;;;;;;;;;;;;;6285245;22;19922;-87
2023/09/19 04:53:24;;;;;;;;;;;;;;;;;;6283710;22;19925;-88
2023/09/19 04:55:50;;;;;;;;;;;;;;;;;;6286281;22;19918;-87
2023/09/19 04:58:16;;;;;;;;;;;;;;;;;;6285647;22;19941;-86
2023/09/19 05:00:42;;;;;;;;;;;;;;;;;;6281852;22;19946;-86
2023/09/19 05:03:10;;;;;;;;;;;;;;;;;;6285573;22;20271;-87
2023/09/19 05:05:38;;;;;;;;;;;;;;;;;;6260350;22;20301;-87
2023/09/19 05:08:05;;;;;;;;;;;;;;;;;;6291530;22;19922;-88
2023/09/19 05:10:37;;;;;;;;;;;;;;;;;;6310629;22;19918;-87
2023/09/19 05:13:04;;;;;;;;;;;;;;;;;;6311174;22;19922;-87
2023/09/19 05:21:17;;;;;;;;;;;;;;;;;;6141981;23;20454;-92
2023/09/19 05:23:53;;;;;;;;;;;;;;;;;;;;;
2023/09/19 05:33:05;;;;;;;;;;;;;;;;;;6138915;23;19937;-93
2023/09/19 05:35:39;;;;;;;;;;;;;;;;;;6225958;22;19964;-93
2023/09/19 05:38:08;;;;;;;;;;;;;;;;;;6205214;22;20331;-93
2023/09/19 05:40:46;;;;;;;;;;;;;;;;;;6206865;22;20236;-94
2023/09/19 05:43:14;;;;;;;;;;;;;;;;;;6229346;22;20367;-93
2023/09/19 05:45:40;;;;;;;;;;;;;;;;;;6229538;22;20355;-93
2023/09/19 05:48:09;;;;;;;;;;;;;;;;;;6210653;22;20365;-94
2023/09/19 05:50:38;;;;;;;;;;;;;;;;;;6206192;22;19925;-94
2023/09/19 05:53:06;;;;;;;;;;;;;;;;;;6229754;22;19927;-94
2023/09/19 05:55:55;;;;;;;;;;;;;;;;;;6205184;22;20291;-93
2023/09/19 05:58:22;;;;;;;;;;;;;;;;;;6230532;22;19927;-94
2023/09/19 06:00:55;;;;;;;;;;;;;;;;;;6203152;22;19966;-92
2023/09/19 06:03:36;;;;;;;;;;;;;;;;;;6225253;22;20400;-96
2023/09/19 06:06:02;;;;;;;;;;;;;;;;;;6204749;22;19919;-96
2023/09/19 06:08:28;;;;;;;;;;;;;;;;;;6203377;22;19954;-94
2023/09/19 06:10:54;;;;;;;;;;;;;;;;;;6203720;22;20413;-94
2023/09/19 06:13:28;;;;;;;;;;;;;;;;;;6201544;22;19930;-95
2023/09/19 06:15:54;;;;;;;;;;;;;;;;;;6205969;22;19959;-93
2023/09/19 06:18:20;;;;;;;;;;;;;;;;;;6285400;22;19954;-93
2023/09/19 06:20:46;;;;;;;;;;;;;;;;;;6261926;22;19926;-92
2023/09/19 06:26:32;;;;;;;;;;;;;;;;;;6203133;23;19995;-93
2023/09/19 06:28:59;;;;;;;;;;;;;;;;;;6256078;22;20867;-93
2023/09/19 06:31:26;;;;;;;;;;;;;;;;;;6262632;22;20750;-93
2023/09/19 06:33:52;;;;;;;;;;;;;;;;;;6237859;22;19977;-93
2023/09/19 06:36:19;;;;;;;;;;;;;;;;;;6260749;22;20339;-93
2023/09/19 06:38:45;;;;;;;;;;;;;;;;;;6262438;22;19954;-93
2023/09/19 06:41:12;;;;;;;;;;;;;;;;;;6263936;22;19918;-92
2023/09/19 06:43:39;;;;;;;;;;;;;;;;;;6261244;22;20016;-93
2023/09/19 06:46:07;;;;;;;;;;;;;;;;;;6238569;22;19919;-93
2023/09/19 06:48:33;;;;;;;;;;;;;;;;;;6260742;22;20058;-93
2023/09/19 06:51:04;;;;;;;;;;;;;;;;;;6263385;22;20022;-93
2023/09/19 06:53:31;;;;;;;;;;;;;;;;;;6235125;22;20332;-92
2023/09/19 06:55:57;;;;;;;;;;;;;;;;;;6238454;22;20232;-92
2023/09/19 06:58:23;;;;;;;;;;;;;;;;;;6263607;22;19926;-92
2023/09/19 07:00:50;;;;;;;;;;;;;;;;;;6264227;22;19918;-92
2023/09/19 07:03:19;;;;;;;;;;;;;;;;;;6264958;22;19934;-93
2023/09/19 07:05:45;;;;;;;;;;;;;;;;;;6238319;22;19923;-92
2023/09/19 07:08:12;;;;;;;;;;;;;;;;;;6263467;22;19926;-93
2023/09/19 07:10:39;;;;;;;;;;;;;;;;;;6262036;22;19972;-92
2023/09/19 07:13:08;;;;;;;;;;;;;;;;;;6263329;22;19923;-93
2023/09/19 07:15:38;;;;;;;;;;;;;;;;;;6289796;22;19925;-93
2023/09/19 07:18:04;;;;;;;;;;;;;;;;;;6263970;22;19969;-92
2023/09/19 07:20:32;;;;;;;;;;;;;;;;;;6235392;22;19920;-93
2023/09/19 07:22:59;;;;;;;;;;;;;;;;;;6261774;22;19929;-93
2023/09/19 07:25:25;;;;;;;;;;;;;;;;;;6235897;22;20009;-93
2023/09/19 07:27:51;;;;;;;;;;;;;;;;;;6266128;22;19925;-92
2023/09/19 07:30:17;;;;;;;;;;;;;;;;;;6239246;22;19926;-93
2023/09/19 07:32:43;;;;;;;;;;;;;;;;;;6234690;22;19967;-93
2023/09/19 07:35:09;;;;;;;;;;;;;;;;;;6290547;22;20337;-93
2023/09/19 07:37:36;;;;;;;;;;;;;;;;;;6236310;22;20096;-93
2023/09/19 07:40:03;;;;;;;;;;;;;;;;;;6263069;22;19919;-93
2023/09/19 07:42:29;;;;;;;;;;;;;;;;;;6261357;22;19922;-93
2023/09/19 07:44:55;;;;;;;;;;;;;;;;;;6263609;22;19918;-93
2023/09/19 07:47:21;;;;;;;;;;;;;;;;;;6236912;22;19925;-93
2023/09/19 07:49:47;;;;;;;;;;;;;;;;;;6235980;22;20392;-93
2023/09/19 07:52:13;;;;;;;;;;;;;;;;;;6261801;22;20315;-93
2023/09/19 07:54:41;;;;;;;;;;;;;;;;;;6287593;22;20376;-92
2023/09/19 07:57:07;;;;;;;;;;;;;;;;;;6261228;22;20297;-92
2023/09/19 07:59:33;;;;;;;;;;;;;;;;;;6257073;22;19939;-93
2023/09/19 08:01:59;;;;;;;;;;;;;;;;;;6263664;22;19918;-93
2023/09/19 08:04:25;;;;;;;;;;;;;;;;;;6261151;22;20054;-92
2023/09/19 08:06:52;;;;;;;;;;;;;;;;;;6265768;22;20453;-92
2023/09/19 08:09:20;;;;;;;;;;;;;;;;;;6263404;22;19961;-92
2023/09/19 08:11:46;;;;;;;;;;;;;;;;;;6260209;22;19919;-91
2023/09/19 08:14:14;;;;;;;;;;;;;;;;;;6235016;22;19957;-93
2023/09/19 08:16:40;;;;;;;;;;;;;;;;;;6256847;22;20985;-91
2023/09/19 08:19:06;;;;;;;;;;;;;;;;;;6253823;22;19943;-93
2023/09/19 08:21:32;;;;;;;;;;;;;;;;;;6248711;22;19943;-93
2023/09/19 08:23:57;;;;;;;;;;;;;;;;;;6231126;22;20124;-92
2023/09/19 08:26:24;;;;;;;;;;;;;;;;;;6230329;22;19919;-92
2023/09/19 08:28:51;;;;;;;;;;;;;;;;;;6258318;22;20384;-92
2023/09/19 08:31:17;;;;;;;;;;;;;;;;;;6231611;22;19977;-93
2023/09/19 08:33:44;;;;;;;;;;;;;;;;;;6252826;22;20331;-93
2023/09/19 08:36:14;;;;;;;;;;;;;;;;;;6232412;22;20271;-92
2023/09/19 08:38:39;;;;;;;;;;;;;;;;;;6231059;22;20474;-93
2023/09/19 08:41:05;;;;;;;;;;;;;;;;;;6259141;22;20335;-93
2023/09/19 08:43:33;;;;;;;;;;;;;;;;;;6255207;22;20252;-92
2023/09/19 08:45:59;;;;;;;;;;;;;;;;;;6257762;22;19927;-92
2023/09/19 08:48:25;;;;;;;;;;;;;;;;;;6251773;22;20001;-93
2023/09/19 08:50:51;;;;;;;;;;;;;;;;;;6254611;22;19919;-93
2023/09/19 08:53:17;;;;;;;;;;;;;;;;;;6252825;22;19919;-92
2023/09/19 08:55:43;;;;;;;;;;;;;;;;;;6228233;22;19945;-93
2023/09/19 08:58:10;;;;;;;;;;;;;;;;;;6229765;22;20499;-93
2023/09/19 09:00:36;;;;;;;;;;;;;;;;;;6250705;22;19965;-93
2023/09/19 09:03:02;;;;;;;;;;;;;;;;;;6255274;22;19959;-92
2023/09/19 09:05:28;;;;;;;;;;;;;;;;;;6230231;22;19919;-92
2023/09/19 09:07:57;;;;;;;;;;;;;;;;;;6255258;22;19923;-92
2023/09/19 09:10:23;;;;;;;;;;;;;;;;;;6229365;22;20422;-93
2023/09/19 09:12:48;;;;;;;;;;;;;;;;;;6255205;22;20005;-92
2023/09/19 09:15:16;;;;;;;;;;;;;;;;;;6229590;22;19919;-93
2023/09/19 09:17:43;;;;;;;;;;;;;;;;;;6252338;22;20227;-93
2023/09/19 09:20:10;;;;;;;;;;;;;;;;;;6256871;22;19915;-91
2023/09/19 09:22:39;;;;;;;;;;;;;;;;;;6251777;22;19934;-92
2023/09/19 09:25:05;;;;;;;;;;;;;;;;;;6229058;22;19923;-92
2023/09/19 09:27:32;;;;;;;;;;;;;;;;;;6254257;22;19923;-93
2023/09/19 09:29:58;;;;;;;;;;;;;;;;;;6229252;22;20290;-93
2023/09/19 09:32:24;;;;;;;;;;;;;;;;;;6253166;22;19967;-93
2023/09/19 09:34:50;;;;;;;;;;;;;;;;;;6252619;22;20348;-92
2023/09/19 09:37:20;;;;;;;;;;;;;;;;;;6234269;22;20075;-92
2023/09/19 09:39:47;;;;;;;;;;;;;;;;;;6232228;22;20276;-92
2023/09/19 09:42:13;;;;;;;;;;;;;;;;;;6256672;22;20427;-92
2023/09/19 09:44:42;;;;;;;;;;;;;;;;;;6232188;22;20455;-92
2023/09/19 09:50:16;;;;;;;;;;;;;;;;;;6203193;22;19954;-93
2023/09/19 09:52:43;;;;;;;;;;;;;;;;;;6257335;22;20497;-93
2023/09/19 09:55:10;;;;;;;;;;;;;;;;;;6230979;22;19919;-93
2023/09/19 09:57:36;;;;;;;;;;;;;;;;;;6254501;22;19929;-93
2023/09/19 10:02:37;;;;;;;;;;;;;;;;;;6253353;22;19929;-93
2023/09/19 10:05:14;;;;;;;;;;;;;;;;;;6257547;22;19919;-93
2023/09/19 10:07:49;;;;;;;;;;;;;;;;;;6257888;22;20107;-92
2023/09/19 10:10:21;;;;;;;;;;;;;;;;;;6234885;22;19937;-92
2023/09/19 10:12:49;;;;;;;;;;;;;;;;;;6233827;22;20126;-91
2023/09/19 10:15:16;;;;;;;;;;;;;;;;;;6259166;22;19923;-93
2023/09/19 10:17:43;;;;;;;;;;;;;;;;;;6259568;22;19919;-93
2023/09/19 10:20:19;;;;;;;;;;;;;;;;;;6259415;22;19977;-93
2023/09/19 10:22:45;;;;;;;;;;;;;;;;;;6228704;22;20322;-93
2023/09/19 10:25:12;;;;;;;;;;;;;;;;;;6259090;22;19947;-93
2023/09/19 10:27:38;;;;;;;;;;;;;;;;;;6234396;22;19990;-92
2023/09/19 10:30:07;;;;;;;;;;;;;;;;;;6235299;22;20319;-92
2023/09/19 10:32:33;;;;;;;;;;;;;;;;;;6256558;22;19927;-94
2023/09/19 10:35:00;;;;;;;;;;;;;;;;;;6257240;22;19969;-92
2023/09/19 10:37:26;;;;;;;;;;;;;;;;;;6227190;22;19919;-93
2023/09/19 10:39:52;;;;;;;;;;;;;;;;;;6258703;22;19919;-93
2023/09/19 10:42:18;;;;;;;;;;;;;;;;;;6235403;22;19919;-93
2023/09/19 10:44:44;;;;;;;;;;;;;;;;;;6232272;22;19951;-93
2023/09/19 10:47:10;;;;;;;;;;;;;;;;;;6234430;22;20377;-93
2023/09/19 10:49:36;;;;;;;;;;;;;;;;;;6258407;22;19919;-93
2023/09/19 10:52:02;;;;;;;;;;;;;;;;;;6259507;22;19977;-93
2023/09/19 10:54:28;;;;;;;;;;;;;;;;;;6257094;22;20329;-93
2023/09/19 10:56:56;;;;;;;;;;;;;;;;;;6259522;22;19993;-93
2023/09/19 10:59:24;;;;;;;;;;;;;;;;;;6257113;22;20020;-93
2023/09/19 11:01:53;;;;;;;;;;;;;;;;;;6258199;22;19947;-93
2023/09/19 11:04:20;;;;;;;;;;;;;;;;;;6232331;22;19923;-93
2023/09/19 11:06:46;;;;;;;;;;;;;;;;;;6260323;22;20316;-93
2023/09/19 11:11:42;;;;;;;;;;;;;;;;;;6255756;22;20397;-93
2023/09/19 11:14:08;;;;;;;;;;;;;;;;;;6257734;22;19919;-93
2023/09/19 11:16:34;;;;;;;;;;;;;;;;;;6256915;22;19923;-93
2023/09/19 11:19:01;;;;;;;;;;;;;;;;;;6254310;22;20362;-93
2023/09/19 11:21:33;;;;;;;;;;;;;;;;;;6254060;22;19919;-93
2023/09/19 11:23:59;;;;;;;;;;;;;;;;;;6232218;22;19919;-92
2023/09/19 11:26:26;;;;;;;;;;;;;;;;;;6257105;22;19927;-93
2023/09/19 11:28:52;;;;;;;;;;;;;;;;;;6261316;22;19919;-92
2023/09/19 11:31:18;;;;;;;;;;;;;;;;;;6258621;22;20041;-93
2023/09/19 11:33:46;;;;;;;;;;;;;;;;;;6231136;22;19993;-92
2023/09/19 11:36:15;;;;;;;;;;;;;;;;;;6230726;22;19920;-92
2023/09/19 11:38:41;;;;;;;;;;;;;;;;;;6255684;22;19969;-92
2023/09/19 11:41:06;;;;;;;;;;;;;;;;;;6258768;22;20334;-94
2023/09/19 11:43:34;;;;;;;;;;;;;;;;;;6231472;22;19923;-93
2023/09/19 11:46:01;;;;;;;;;;;;;;;;;;6230763;22;19926;-93
2023/09/19 11:48:27;;;;;;;;;;;;;;;;;;6256364;22;20384;-94
2023/09/19 11:50:53;;;;;;;;;;;;;;;;;;6233893;22;19925;-93
2023/09/19 11:53:19;;;;;;;;;;;;;;;;;;6240865;22;20327;-93
2023/09/19 11:55:45;;;;;;;;;;;;;;;;;;6261812;22;19986;-92
2023/09/19 11:58:13;;;;;;;;;;;;;;;;;;6261306;22;19950;-92
2023/09/19 12:00:41;;;;;;;;;;;;;;;;;;6261318;22;20297;-93
2023/09/19 12:03:07;;;;;;;;;;;;;;;;;;6235028;22;20030;-93
2023/09/19 12:05:33;;;;;;;;;;;;;;;;;;6253143;22;19990;-93
2023/09/19 12:07:59;;;;;;;;;;;;;;;;;;6256840;22;19919;-93
2023/09/19 12:10:26;;;;;;;;;;;;;;;;;;6255796;22;20194;-92
2023/09/19 12:12:53;;;;;;;;;;;;;;;;;;6259805;22;19919;-93
2023/09/19 12:15:20;;;;;;;;;;;;;;;;;;6232559;22;20312;-92
2023/09/19 12:17:46;;;;;;;;;;;;;;;;;;6257161;22;20292;-93
2023/09/19 12:20:16;;;;;;;;;;;;;;;;;;6232592;22;19926;-93
2023/09/19 12:22:43;;;;;;;;;;;;;;;;;;6254464;22;20011;-93
2023/09/19 12:25:11;;;;;;;;;;;;;;;;;;6233494;22;20257;-93
2023/09/19 12:27:37;;;;;;;;;;;;;;;;;;6230909;22;20348;-92
2023/09/19 12:30:05;;;;;;;;;;;;;;;;;;6260700;22;20220;-93
2023/09/19 12:32:34;;;;;;;;;;;;;;;;;;6231190;22;19984;-93
2023/09/19 12:35:00;;;;;;;;;;;;;;;;;;6231669;22;20383;-93
2023/09/19 12:37:30;;;;;;;;;;;;;;;;;;6232684;22;20256;-92
2023/09/19 12:39:56;;;;;;;;;;;;;;;;;;6231268;22;19988;-92
2023/09/19 12:42:22;;;;;;;;;;;;;;;;;;6255194;22;19994;-93
2023/09/19 12:44:48;;;;;;;;;;;;;;;;;;6231899;22;20225;-92
2023/09/19 12:47:15;;;;;;;;;;;;;;;;;;6259790;22;20629;-93
2023/09/19 12:49:42;;;;;;;;;;;;;;;;;;6253489;22;20363;-93
2023/09/19 12:52:10;;;;;;;;;;;;;;;;;;6256888;22;19963;-92
2023/09/19 12:54:35;;;;;;;;;;;;;;;;;;6251637;22;20726;-93
2023/09/19 12:57:01;;;;;;;;;;;;;;;;;;6257220;22;19949;-92
2023/09/19 12:59:30;;;;;;;;;;;;;;;;;;6254365;22;19919;-93
2023/09/19 13:01:56;;;;;;;;;;;;;;;;;;6257963;22;20306;-92
2023/09/19 13:04:28;;;;;;;;;;;;;;;;;;6253206;22;20328;-94
2023/09/19 13:06:55;;;;;;;;;;;;;;;;;;6231162;22;19925;-91
2023/09/19 13:09:21;;;;;;;;;;;;;;;;;;6255219;22;19919;-92
2023/09/19 13:11:48;;;;;;;;;;;;;;;;;;6258294;22;20703;-93
2023/09/19 13:14:13;;;;;;;;;;;;;;;;;;6232635;22;19985;-92
2023/09/19 13:16:39;;;;;;;;;;;;;;;;;;6256988;22;20300;-93
2023/09/19 13:19:05;;;;;;;;;;;;;;;;;;6257392;22;19923;-92
2023/09/19 13:21:42;;;;;;;;;;;;;;;;;;6230676;22;19969;-93
2023/09/19 13:24:08;;;;;;;;;;;;;;;;;;6255120;22;19923;-92
2023/09/19 13:26:34;;;;;;;;;;;;;;;;;;6230724;22;19929;-93
2023/09/19 13:29:03;;;;;;;;;;;;;;;;;;6234021;22;19920;-94
2023/09/19 13:31:29;;;;;;;;;;;;;;;;;;6253366;22;19919;-93
2023/09/19 13:33:55;;;;;;;;;;;;;;;;;;6252373;22;20007;-93
2023/09/19 13:36:21;;;;;;;;;;;;;;;;;;6227521;22;19926;-91
2023/09/19 13:38:49;;;;;;;;;;;;;;;;;;6256850;22;19927;-92
2023/09/19 13:41:15;;;;;;;;;;;;;;;;;;6227591;22;20437;-92
2023/09/19 13:43:41;;;;;;;;;;;;;;;;;;6227749;22;20002;-93
2023/09/19 13:46:27;;;;;;;;;;;;;;;;;;;;;
2023/09/19 13:55:37;;;;;;;;;;;;;;;;;;6082228;23;20525;-94
2023/09/19 13:58:09;;;;;;;;;;;;;;;;;;6021117;23;19932;-93
2023/09/19 14:01:02;;;;;;;;;;;;;;;;;;6065817;23;19943;-93
2023/09/19 14:13:07;;;;;;;;;;;;;;;;;;6176102;23;20006;-93
2023/09/19 14:18:12;;;;;;;;;;;;;;;;;;6312429;22;19957;-87
2023/09/19 14:20:43;;;;;;;;;;;;;;;;;;6303690;22;20000;-86
2023/09/19 14:23:14;;;;;;;;;;;;;;;;;;6255157;22;19933;-87
2023/09/19 14:25:41;;;;;;;;;;;;;;;;;;6278711;22;19945;-86
2023/09/19 14:28:08;;;;;;;;;;;;;;;;;;6282502;22;19919;-87
2023/09/19 14:30:46;;;;;;;;;;;;;;;;;;6251045;22;19986;-87
2023/09/19 14:33:15;;;;;;;;;;;;;;;;;;6256713;22;20364;-86
2023/09/19 14:35:45;;;;;;;;;;;;;;;;;;6254423;22;19925;-88
2023/09/19 14:38:14;;;;;;;;;;;;;;;;;;6277187;22;19981;-87
2023/09/19 14:40:45;;;;;;;;;;;;;;;;;;6276511;22;19926;-87
2023/09/19 14:43:12;;;;;;;;;;;;;;;;;;6255147;22;19973;-87
2023/09/19 14:45:43;;;;;;;;;;;;;;;;;;6252486;22;19996;-87
2023/09/19 14:48:10;;;;;;;;;;;;;;;;;;6281800;22;19961;-88
2023/09/19 14:50:37;;;;;;;;;;;;;;;;;;6254605;22;20019;-87
2023/09/19 14:53:09;;;;;;;;;;;;;;;;;;6258709;22;19976;-87
2023/09/19 14:55:36;;;;;;;;;;;;;;;;;;6278009;22;19940;-87
2023/09/19 14:58:03;;;;;;;;;;;;;;;;;;6252317;22;19976;-87
2023/09/19 15:00:35;;;;;;;;;;;;;;;;;;6254192;22;19925;-88
2023/09/19 15:03:02;;;;;;;;;;;;;;;;;;6278234;22;20220;-90
2023/09/19 15:05:34;;;;;;;;;;;;;;;;;;6277811;22;19923;-89
2023/09/19 15:08:21;;;;;;;;;;;;;;;;;;;;;
2023/09/19 15:11:03;;;;;;;;;;;;;;;;;;;;;
2023/09/19 15:13:37;;;;;;;;;;;;;;;;;;6277507;22;20001;-88
2023/09/19 15:16:14;;;;;;;;;;;;;;;;;;;;;
2023/09/19 15:18:51;;;;;;;;;;;;;;;;;;6283394;22;19923;-88
2023/09/19 15:21:45;;;;;;;;;;;;;;;;;;6277443;22;19919;-87
2023/09/19 15:24:12;;;;;;;;;;;;;;;;;;6282904;22;19922;-87
2023/09/19 15:26:52;;;;;;;;;;;;;;;;;;6283882;22;19925;-88
2023/09/19 15:29:22;;;;;;;;;;;;;;;;;;6288062;22;19919;-86
2023/09/19 15:31:50;;;;;;;;;;;;;;;;;;6260776;22;19919;-86
2023/09/19 15:34:17;;;;;;;;;;;;;;;;;;6260568;22;19919;-87
2023/09/19 15:36:45;;;;;;;;;;;;;;;;;;6283686;22;19945;-86
2023/09/19 15:39:15;;;;;;;;;;;;;;;;;;6286727;22;19955;-87
2023/09/19 15:41:52;;;;;;;;;;;;;;;;;;;;;
2023/09/19 15:44:26;;;;;;;;;;;;;;;;;;6283643;22;19962;-86
2023/09/19 15:49:55;;;;;;;;;;;;;;;;;;6282820;22;19988;-87
2023/09/19 15:52:50;;;;;;;;;;;;;;;;;;6258005;22;19918;-87
2023/09/19 15:55:17;;;;;;;;;;;;;;;;;;6288534;22;19926;-87
2023/09/19 15:57:54;;;;;;;;;;;;;;;;;;6257859;22;19918;-87
2023/09/19 16:00:28;;;;;;;;;;;;;;;;;;6258479;22;19918;-87
2023/09/19 16:03:14;;;;;;;;;;;;;;;;;;6260771;22;19934;-87
2023/09/19 16:06:00;;;;;;;;;;;;;;;;;;6285099;22;19941;-87
2023/09/19 16:08:49;;;;;;;;;;;;;;;;;;;;;
2023/09/19 16:11:27;;;;;;;;;;;;;;;;;;6284555;22;19919;-87
2023/09/19 16:13:54;;;;;;;;;;;;;;;;;;6261507;22;19919;-87
2023/09/19 16:16:22;;;;;;;;;;;;;;;;;;6289109;22;19937;-88
2023/09/19 16:18:50;;;;;;;;;;;;;;;;;;6287404;22;19923;-89
2023/09/19 16:21:27;;;;;;;;;;;;;;;;;;6284556;22;19999;-88
2023/09/19 16:23:56;;;;;;;;;;;;;;;;;;6286976;22;19930;-87
2023/09/19 16:26:23;;;;;;;;;;;;;;;;;;6258852;22;20456;-87
2023/09/19 16:28:50;;;;;;;;;;;;;;;;;;6288126;22;20354;-86
2023/09/19 16:31:17;;;;;;;;;;;;;;;;;;6286233;22;19918;-87
2023/09/19 16:33:44;;;;;;;;;;;;;;;;;;6284609;22;19923;-87
2023/09/19 16:36:12;;;;;;;;;;;;;;;;;;6258894;22;19936;-87
2023/09/19 16:38:39;;;;;;;;;;;;;;;;;;6258700;22;19929;-86
2023/09/19 16:41:09;;;;;;;;;;;;;;;;;;6257792;22;19989;-88
2023/09/19 16:43:36;;;;;;;;;;;;;;;;;;6279317;22;20012;-88
2023/09/19 16:46:11;;;;;;;;;;;;;;;;;;6263762;22;19939;-90
2023/09/19 16:48:45;;;;;;;;;;;;;;;;;;6262358;22;19922;-90
2023/09/19 16:51:23;;;;;;;;;;;;;;;;;;6266124;22;19972;-88
2023/09/19 16:53:52;;;;;;;;;;;;;;;;;;6285825;22;19919;-88
2023/09/19 16:56:26;;;;;;;;;;;;;;;;;;6285654;22;19925;-89
2023/09/19 16:59:01;;;;;;;;;;;;;;;;;;6286372;22;19923;-88
2023/09/19 17:01:52;;;;;;;;;;;;;;;;;;6288094;22;19985;-89
2023/09/19 17:04:39;;;;;;;;;;;;;;;;;;6261198;22;19923;-89
2023/09/19 17:07:07;;;;;;;;;;;;;;;;;;6259476;22;19919;-87
2023/09/19 17:09:34;;;;;;;;;;;;;;;;;;6281332;22;19919;-90
2023/09/19 17:12:05;;;;;;;;;;;;;;;;;;6282345;22;20002;-88
2023/09/19 17:14:44;;;;;;;;;;;;;;;;;;6287398;22;19918;-87
2023/09/19 17:17:12;;;;;;;;;;;;;;;;;;6281910;22;19950;-86
2023/09/19 17:19:39;;;;;;;;;;;;;;;;;;6251632;22;19919;-88
2023/09/19 17:22:06;;;;;;;;;;;;;;;;;;6286158;22;19990;-88
2023/09/19 17:24:33;;;;;;;;;;;;;;;;;;6255445;22;19985;-87
2023/09/19 17:27:00;;;;;;;;;;;;;;;;;;6260025;22;19949;-87
2023/09/19 17:29:31;;;;;;;;;;;;;;;;;;6259405;22;19919;-87
2023/09/19 17:31:58;;;;;;;;;;;;;;;;;;6258603;22;19930;-87
2023/09/19 17:34:25;;;;;;;;;;;;;;;;;;6280843;22;19965;-88
2023/09/19 17:36:54;;;;;;;;;;;;;;;;;;6281916;22;19941;-88
2023/09/19 17:39:21;;;;;;;;;;;;;;;;;;6258105;22;19919;-87
2023/09/19 17:41:49;;;;;;;;;;;;;;;;;;6282525;22;19919;-87
2023/09/19 17:44:25;;;;;;;;;;;;;;;;;;6287922;22;19923;-89